createdAt,value
2022-12-29T00:00:22.332Z,8.89
2022-12-29T00:05:31.048Z,8.93
2022-12-29T00:10:39.586Z,8.96
2022-12-29T00:15:47.680Z,8.99
2022-12-29T00:21:17.258Z,9.02
2022-12-29T00:26:42.911Z,9.05
2022-12-29T00:32:09.558Z,9.08
2022-12-29T00:37:18.408Z,9.10
2022-12-29T00:42:44.908Z,9.12
2022-12-29T00:47:53.275Z,9.12
2022-12-29T00:53:01.507Z,9.12
2022-12-29T00:58:09.551Z,9.13
2022-12-29T01:03:17.824Z,9.13
2022-12-29T01:08:25.267Z,9.14
2022-12-29T01:13:33.546Z,9.17
2022-12-29T01:18:41.625Z,9.17
2022-12-29T01:23:50.029Z,9.19
2022-12-29T01:28:58.140Z,9.20
2022-12-29T01:34:07.319Z,9.21
2022-12-29T01:39:15.736Z,9.21
2022-12-29T01:44:54.822Z,9.21
2022-12-29T01:50:07.186Z,9.22
2022-12-29T01:55:13.623Z,9.23
2022-12-29T02:00:22.411Z,9.23
2022-12-29T02:05:37.448Z,9.24
2022-12-29T02:10:47.250Z,9.24
2022-12-29T02:16:06.345Z,9.23
2022-12-29T02:21:45.123Z,9.24
2022-12-29T02:27:27.209Z,9.24
2022-12-29T02:32:44.474Z,9.25
2022-12-29T02:38:04.309Z,9.25
2022-12-29T02:43:20.377Z,9.25
2022-12-29T02:48:32.774Z,9.25
2022-12-29T02:53:58.974Z,9.25
2022-12-29T02:59:07.526Z,9.23
2022-12-29T03:04:30.672Z,9.20
2022-12-29T03:09:49.795Z,9.18
2022-12-29T03:15:23.042Z,9.15
2022-12-29T03:20:41.223Z,9.12
2022-12-29T03:25:54.289Z,9.08
2022-12-29T03:31:06.038Z,9.03
2022-12-29T03:36:20.961Z,8.99
2022-12-29T03:41:33.389Z,8.94
2022-12-29T03:46:42.920Z,8.92
2022-12-29T03:51:52.064Z,8.91
2022-12-29T03:57:00.877Z,8.89
2022-12-29T04:02:18.910Z,8.87
2022-12-29T04:07:27.562Z,8.85
2022-12-29T04:12:36.559Z,8.83
2022-12-29T04:17:44.907Z,8.81
2022-12-29T04:22:59.796Z,8.79
2022-12-29T04:28:09.245Z,8.78
2022-12-29T04:33:27.909Z,8.77
2022-12-29T04:38:36.182Z,8.77
2022-12-29T04:43:45.820Z,8.76
2022-12-29T04:49:12.634Z,8.76
2022-12-29T04:54:32.994Z,8.76
2022-12-29T04:59:49.569Z,8.74
2022-12-29T05:05:00.544Z,8.74
2022-12-29T05:10:11.200Z,8.73
2022-12-29T05:15:18.608Z,8.73
2022-12-29T05:20:27.061Z,8.73
2022-12-29T05:25:35.338Z,8.73
2022-12-29T05:31:01.229Z,8.72
2022-12-29T05:36:12.905Z,8.72
2022-12-29T05:41:24.978Z,8.72
2022-12-29T05:47:08.485Z,8.72
2022-12-29T05:52:26.783Z,8.72
2022-12-29T05:57:35.209Z,8.73
2022-12-29T06:02:55.500Z,8.73
2022-12-29T06:08:03.723Z,8.74
2022-12-29T06:13:12.173Z,8.74
2022-12-29T06:18:22.525Z,8.74
2022-12-29T06:23:31.022Z,8.73
2022-12-29T06:28:40.468Z,8.74
2022-12-29T06:33:50.228Z,8.75
2022-12-29T06:38:59.511Z,8.73
2022-12-29T06:44:07.594Z,8.73
2022-12-29T06:49:31.131Z,8.72
2022-12-29T06:54:39.264Z,8.73
2022-12-29T06:59:47.548Z,8.73
2022-12-29T07:04:54.938Z,8.73
2022-12-29T07:10:02.837Z,8.73
2022-12-29T07:15:13.607Z,8.70
2022-12-29T07:20:26.807Z,8.69
2022-12-29T07:25:36.464Z,8.69
2022-12-29T07:30:44.619Z,8.68
2022-12-29T07:35:52.902Z,8.68
2022-12-29T07:41:03.276Z,8.67
2022-12-29T07:46:54.138Z,8.66
2022-12-29T07:51:41.072Z,8.65
2022-12-29T07:56:49.727Z,8.65
2022-12-29T08:01:58.492Z,8.65
2022-12-29T08:07:06.785Z,8.65
2022-12-29T08:12:16.061Z,8.65
2022-12-29T08:17:24.332Z,8.66
2022-12-29T08:22:32.578Z,8.68
2022-12-29T08:27:41.337Z,8.68
2022-12-29T08:32:50.124Z,8.70
2022-12-29T08:37:58.874Z,8.71
2022-12-29T08:43:08.756Z,8.73
2022-12-29T08:48:21.193Z,8.74
2022-12-29T08:53:26.881Z,8.74
2022-12-29T08:58:35.950Z,8.75
2022-12-29T09:09:13.701Z,8.77
2022-12-29T09:14:22.829Z,8.78
2022-12-29T09:19:31.222Z,8.79
2022-12-29T09:24:39.325Z,8.80
2022-12-29T09:29:47.648Z,8.81
2022-12-29T09:34:55.883Z,8.83
2022-12-29T09:40:04.191Z,8.84
2022-12-29T09:45:18.534Z,8.86
2022-12-29T09:50:31.737Z,8.88
2022-12-29T09:55:43.275Z,8.91
2022-12-29T10:00:56.910Z,8.96
2022-12-29T10:06:14.894Z,8.99
2022-12-29T10:11:36.635Z,9.02
2022-12-29T10:16:52.770Z,9.05
2022-12-29T10:22:12.952Z,9.07
2022-12-29T10:27:21.529Z,9.11
2022-12-29T10:32:37.778Z,9.14
2022-12-29T10:37:51.924Z,9.17
2022-12-29T10:43:21.298Z,9.20
2022-12-29T10:48:33.875Z,9.23
2022-12-29T10:53:47.809Z,9.26
2022-12-29T10:58:57.578Z,9.30
2022-12-29T11:04:11.676Z,9.34
2022-12-29T11:09:36.606Z,9.39
2022-12-29T11:15:03.045Z,9.44
2022-12-29T11:20:30.545Z,9.48
2022-12-29T11:25:38.808Z,9.53
2022-12-29T11:30:47.570Z,9.57
2022-12-29T11:36:00.016Z,9.61
2022-12-29T11:41:13.799Z,9.65
2022-12-29T11:46:25.931Z,9.68
2022-12-29T11:51:39.993Z,9.72
2022-12-29T11:56:49.115Z,9.76
2022-12-29T12:01:57.588Z,9.79
2022-12-29T12:07:15.516Z,9.82
2022-12-29T12:12:30.634Z,9.84
2022-12-29T12:17:46.709Z,9.87
2022-12-29T12:23:05.657Z,9.93
2022-12-29T12:28:23.511Z,9.99
2022-12-29T12:33:36.189Z,10.06
2022-12-29T12:38:54.829Z,10.11
2022-12-29T12:44:13.846Z,10.15
2022-12-29T12:50:10.164Z,10.19
2022-12-29T12:55:42.009Z,10.22
2022-12-29T13:01:02.532Z,10.26
2022-12-29T13:06:24.448Z,10.30
2022-12-29T13:11:44.705Z,10.34
2022-12-29T13:17:05.065Z,10.36
2022-12-29T13:22:22.279Z,10.40
2022-12-29T13:27:38.142Z,10.42
2022-12-29T13:32:59.895Z,10.46
2022-12-29T13:38:14.094Z,10.50
2022-12-29T13:43:24.001Z,10.54
2022-12-29T13:48:44.957Z,10.56
2022-12-29T13:54:04.734Z,10.60
2022-12-29T13:59:21.493Z,10.63
2022-12-29T14:04:34.734Z,10.66
2022-12-29T14:09:52.969Z,10.69
2022-12-29T14:15:10.302Z,10.71
2022-12-29T14:20:27.312Z,10.75
2022-12-29T14:26:00.296Z,10.77
2022-12-29T14:31:31.128Z,10.79
2022-12-29T14:36:41.431Z,10.82
2022-12-29T14:41:49.725Z,10.84
2022-12-29T14:47:04.785Z,10.85
2022-12-29T14:52:21.382Z,10.87
2022-12-29T14:57:40.262Z,10.88
2022-12-29T15:02:52.182Z,10.89
2022-12-29T15:08:03.377Z,10.90
2022-12-29T15:13:21.004Z,10.90
2022-12-29T15:18:34.462Z,10.90
2022-12-29T15:23:42.361Z,10.90
2022-12-29T15:28:51.169Z,10.90
2022-12-29T15:34:13.397Z,10.90
2022-12-29T15:39:31.216Z,10.90
2022-12-29T15:44:42.703Z,10.90
2022-12-29T15:49:54.246Z,10.91
2022-12-29T15:55:03.706Z,10.91
2022-12-29T16:00:27.761Z,10.92
2022-12-29T16:05:40.254Z,10.92
2022-12-29T16:10:47.338Z,10.93
2022-12-29T16:15:59.711Z,10.91
2022-12-29T16:21:09.385Z,10.92
2022-12-29T16:26:21.876Z,10.91
2022-12-29T16:31:38.196Z,10.93
2022-12-29T16:36:59.503Z,10.94
2022-12-29T16:42:50.565Z,10.95
2022-12-29T16:48:20.808Z,10.95
2022-12-29T16:53:29.944Z,10.96
2022-12-29T16:58:38.984Z,10.97
2022-12-29T17:03:51.407Z,10.98
2022-12-29T17:09:00.443Z,11.00
2022-12-29T17:14:16.336Z,11.01
2022-12-29T17:19:31.253Z,11.03
2022-12-29T17:24:40.396Z,11.04
2022-12-29T17:29:48.623Z,11.05
2022-12-29T17:34:56.792Z,11.06
2022-12-29T17:40:06.369Z,11.05
2022-12-29T17:45:18.823Z,11.04
2022-12-29T17:50:30.203Z,11.03
2022-12-29T17:55:38.878Z,11.02
2022-12-29T18:00:47.388Z,11.02
2022-12-29T18:05:55.623Z,11.02
2022-12-29T18:11:04.634Z,11.02
2022-12-29T18:16:15.046Z,11.01
2022-12-29T18:21:25.355Z,11.01
2022-12-29T18:26:36.022Z,11.02
2022-12-29T18:31:44.271Z,11.03
2022-12-29T18:36:53.440Z,11.04
2022-12-29T18:42:01.647Z,11.05
2022-12-29T18:47:10.478Z,11.07
2022-12-29T18:52:19.567Z,11.09
2022-12-29T18:57:30.958Z,11.11
2022-12-29T19:02:38.825Z,11.14
2022-12-29T19:07:47.469Z,11.16
2022-12-29T19:12:56.883Z,11.19
2022-12-29T19:18:42.443Z,11.21
2022-12-29T19:23:36.907Z,11.24
2022-12-29T19:28:45.065Z,11.27
2022-12-29T19:33:54.108Z,11.29
2022-12-29T19:39:02.848Z,11.29
2022-12-29T19:44:11.579Z,11.31
2022-12-29T19:49:20.573Z,11.31
2022-12-29T19:54:28.802Z,11.30
2022-12-29T19:59:36.939Z,11.29
2022-12-29T20:04:46.136Z,11.28
2022-12-29T20:09:54.563Z,11.26
2022-12-29T20:15:03.156Z,11.26
2022-12-29T20:20:14.610Z,11.24
2022-12-29T20:30:59.363Z,11.23
2022-12-29T20:36:11.855Z,11.23
2022-12-29T20:41:20.473Z,11.22
2022-12-29T20:46:35.398Z,11.21
2022-12-29T20:52:05.604Z,11.19
2022-12-29T20:57:15.663Z,11.18
2022-12-29T21:02:26.047Z,11.15
2022-12-29T21:07:33.440Z,11.14
2022-12-29T21:12:41.659Z,11.11
2022-12-29T21:17:49.260Z,11.08
2022-12-29T21:22:58.022Z,11.06
2022-12-29T21:28:06.569Z,11.04
2022-12-29T21:33:16.242Z,11.04
2022-12-29T21:38:24.404Z,11.02
2022-12-29T21:43:32.596Z,10.99
2022-12-29T21:48:40.799Z,10.96
2022-12-29T21:53:49.099Z,10.93
2022-12-29T21:59:15.249Z,10.89
2022-12-29T22:04:42.670Z,10.84
2022-12-29T22:10:09.444Z,10.79
2022-12-29T22:15:17.986Z,10.72
2022-12-29T22:20:28.114Z,10.66
2022-12-29T22:25:37.002Z,10.60
2022-12-29T22:30:45.289Z,10.56
2022-12-29T22:35:54.162Z,10.53
2022-12-29T22:41:03.812Z,10.49
2022-12-29T22:46:11.097Z,10.45
2022-12-29T22:51:19.207Z,10.43
2022-12-29T22:56:27.356Z,10.41
2022-12-29T23:01:35.617Z,10.39
2022-12-29T23:06:44.051Z,10.37
2022-12-29T23:11:53.803Z,10.35
2022-12-29T23:17:01.033Z,10.36
2022-12-29T23:22:08.539Z,10.38
2022-12-29T23:27:18.458Z,10.39
2022-12-29T23:32:26.621Z,10.40
2022-12-29T23:37:35.135Z,10.41
2022-12-29T23:42:43.211Z,10.43
2022-12-29T23:47:51.380Z,10.44
2022-12-29T23:52:59.981Z,10.45
2022-12-29T23:58:08.290Z,10.47
